createdAt,value
2023-04-03T00:01:11.426Z,102987.38
2023-04-03T00:03:59.103Z,102986.06
2023-04-03T00:06:45.443Z,102982.72
2023-04-03T00:09:32.014Z,102986.25
2023-04-03T00:12:18.445Z,102983.03
2023-04-03T00:15:05.342Z,102984.66
2023-04-03T00:17:51.921Z,102997.44
2023-04-03T00:20:39.940Z,102998.66
2023-04-03T00:23:26.410Z,102998.16
2023-04-03T00:26:12.978Z,103008.28
2023-04-03T00:29:00.632Z,103004.09
2023-04-03T00:31:47.185Z,103000.06
2023-04-03T00:34:33.893Z,102996.09
2023-04-03T00:37:21.552Z,102999.53
2023-04-03T00:40:09.620Z,102999.25
2023-04-03T00:42:59.360Z,103003.47
2023-04-03T00:45:47.606Z,102998.88
2023-04-03T00:48:36.919Z,103007.59
2023-04-03T00:51:27.105Z,103004.16
2023-04-03T00:54:15.382Z,103005.13
2023-04-03T00:57:02.306Z,102996.88
2023-04-03T00:59:52.920Z,103005.78
2023-04-03T01:02:41.679Z,103007.00
2023-04-03T01:05:29.436Z,103007.25
2023-04-03T01:08:16.016Z,103010.31
2023-04-03T01:11:05.786Z,103018.81
2023-04-03T01:13:52.541Z,103025.13
2023-04-03T01:16:39.618Z,103013.94
2023-04-03T01:19:27.023Z,103020.06
2023-04-03T01:22:21.748Z,103010.22
2023-04-03T01:25:08.051Z,103017.69
2023-04-03T01:27:56.347Z,103013.19
2023-04-03T01:30:48.842Z,103016.34
2023-04-03T01:33:37.999Z,103014.03
2023-04-03T01:36:27.124Z,103013.31
2023-04-03T01:39:14.902Z,103009.22
2023-04-03T01:42:01.231Z,103006.84
2023-04-03T01:44:51.454Z,103018.00
2023-04-03T01:47:37.849Z,103007.31
2023-04-03T01:50:26.333Z,103010.28
2023-04-03T01:53:12.983Z,103008.19
2023-04-03T01:55:59.853Z,103016.31
2023-04-03T01:58:46.332Z,103018.16
2023-04-03T02:01:32.595Z,103013.59
2023-04-03T02:04:18.874Z,103013.69
2023-04-03T02:07:06.924Z,103016.56
2023-04-03T02:09:53.343Z,103020.97
2023-04-03T02:12:40.033Z,103028.94
2023-04-03T02:15:26.478Z,103030.66
2023-04-03T02:18:13.672Z,103030.66
2023-04-03T02:20:59.843Z,103026.19
2023-04-03T02:23:47.810Z,103032.81
2023-04-03T02:26:34.140Z,103022.03
2023-04-03T02:29:20.220Z,103030.72
2023-04-03T02:32:07.298Z,103025.59
2023-04-03T02:34:53.848Z,103026.19
2023-04-03T02:37:40.480Z,103027.44
2023-04-03T02:40:28.416Z,103026.59
2023-04-03T02:43:14.943Z,103024.31
2023-04-03T02:46:01.316Z,103031.16
2023-04-03T02:48:47.840Z,103034.66
2023-04-03T02:51:34.230Z,103031.25
2023-04-03T02:54:20.952Z,103031.00
2023-04-03T02:57:13.724Z,103042.03
2023-04-03T03:00:00.184Z,103032.44
2023-04-03T03:02:47.116Z,103039.00
2023-04-03T03:05:33.853Z,103041.13
2023-04-03T03:08:21.222Z,103040.53
2023-04-03T03:11:08.006Z,103047.97
2023-04-03T03:13:55.582Z,103043.59
2023-04-03T03:16:41.671Z,103050.72
2023-04-03T03:19:28.669Z,103037.34
2023-04-03T03:22:14.880Z,103040.06
2023-04-03T03:25:01.754Z,103037.25
2023-04-03T03:27:47.793Z,103045.50
2023-04-03T03:30:35.841Z,103053.66
2023-04-03T03:33:22.440Z,103051.25
2023-04-03T03:36:09.233Z,103055.59
2023-04-03T03:38:56.657Z,103053.72
2023-04-03T03:41:43.717Z,103058.00
2023-04-03T03:44:30.141Z,103061.13
2023-04-03T03:47:18.233Z,103058.53
2023-04-03T03:50:04.621Z,103042.56
2023-04-03T03:52:50.936Z,103057.31
2023-04-03T03:55:38.033Z,103059.28
2023-04-03T03:58:25.216Z,103062.91
2023-04-03T04:01:11.954Z,103055.22
2023-04-03T04:04:04.112Z,103065.28
2023-04-03T04:06:52.731Z,103057.34
2023-04-03T04:09:39.641Z,103058.59
2023-04-03T04:12:28.324Z,103055.88
2023-04-03T04:15:15.040Z,103056.66
2023-04-03T04:18:01.749Z,103063.75
2023-04-03T04:20:49.601Z,103060.09
2023-04-03T04:23:37.637Z,103058.56
2023-04-03T04:26:24.164Z,103061.88
2023-04-03T04:29:11.098Z,103067.88
2023-04-03T04:31:57.408Z,103061.84
2023-04-03T04:34:44.075Z,103059.06
2023-04-03T04:37:31.871Z,103062.69
2023-04-03T04:40:19.044Z,103067.34
2023-04-03T04:43:05.800Z,103058.91
2023-04-03T04:46:02.664Z,103059.59
2023-04-03T04:48:49.858Z,103075.03
2023-04-03T04:51:51.138Z,103073.22
2023-04-03T04:54:41.158Z,103084.50
2023-04-03T04:57:27.906Z,103075.88
2023-04-03T05:00:15.807Z,103080.56
2023-04-03T05:03:02.275Z,103079.72
2023-04-03T05:05:49.030Z,103072.63
2023-04-03T05:08:35.865Z,103069.78
2023-04-03T05:11:25.398Z,103067.19
2023-04-03T05:14:12.230Z,103066.72
2023-04-03T05:16:59.318Z,103071.94
2023-04-03T05:19:49.031Z,103073.66
2023-04-03T05:22:36.632Z,103050.16
2023-04-03T05:25:27.250Z,103054.81
2023-04-03T05:28:16.967Z,103059.78
2023-04-03T05:31:03.726Z,103066.47
2023-04-03T05:33:54.809Z,103061.28
2023-04-03T05:36:41.485Z,103059.75
2023-04-03T05:39:29.326Z,103062.19
2023-04-03T05:42:16.805Z,103063.31
2023-04-03T05:45:05.804Z,103056.66
2023-04-03T05:47:52.395Z,103058.47
2023-04-03T05:50:42.409Z,103057.53
2023-04-03T05:53:35.297Z,103072.31
2023-04-03T05:56:24.483Z,103074.44
2023-04-03T05:59:11.352Z,103079.09
2023-04-03T06:01:59.640Z,103090.38
2023-04-03T06:04:46.305Z,103089.75
2023-04-03T06:07:32.810Z,103095.38
2023-04-03T06:10:21.073Z,103093.56
2023-04-03T06:13:08.080Z,103090.38
2023-04-03T06:15:54.492Z,103098.03
2023-04-03T06:18:42.345Z,103097.28
2023-04-03T06:21:29.489Z,103087.16
2023-04-03T06:24:18.162Z,103094.13
2023-04-03T06:27:04.724Z,103098.47
2023-04-03T06:29:50.845Z,103102.53
2023-04-03T06:32:37.192Z,103100.88
2023-04-03T06:35:26.274Z,103109.06
2023-04-03T06:38:12.789Z,103107.66
2023-04-03T06:40:59.333Z,103120.59
2023-04-03T06:43:46.493Z,103122.81
2023-04-03T06:46:34.182Z,103122.97
2023-04-03T06:49:20.873Z,103134.19
2023-04-03T06:52:08.282Z,103141.28
2023-04-03T06:54:58.078Z,103146.94
2023-04-03T06:57:44.598Z,103147.69
2023-04-03T07:00:31.021Z,103154.28
2023-04-03T07:03:17.453Z,103162.41
2023-04-03T07:06:03.964Z,103167.44
2023-04-03T07:08:52.268Z,103178.88
2023-04-03T07:11:38.971Z,103172.84
2023-04-03T07:14:25.392Z,103187.81
2023-04-03T07:17:12.029Z,103191.53
2023-04-03T07:19:58.498Z,103193.50
2023-04-03T07:22:44.722Z,103192.44
2023-04-03T07:25:32.718Z,103203.22
2023-04-03T07:28:20.500Z,103202.34
2023-04-03T07:31:09.610Z,103209.28
2023-04-03T07:33:56.414Z,103213.19
2023-04-03T07:36:43.312Z,103214.13
2023-04-03T07:39:29.841Z,103216.56
2023-04-03T07:42:17.507Z,103217.06
2023-04-03T07:45:03.912Z,103214.03
2023-04-03T07:47:50.391Z,103218.78
2023-04-03T07:50:37.126Z,103211.03
2023-04-03T07:53:23.639Z,103219.63
2023-04-03T07:56:11.491Z,103219.41
2023-04-03T07:58:59.185Z,103234.53
2023-04-03T08:01:45.868Z,103229.78
2023-04-03T08:04:32.372Z,103234.91
2023-04-03T08:07:18.729Z,103235.56
2023-04-03T08:10:05.734Z,103229.84
2023-04-03T08:12:52.587Z,103239.69
2023-04-03T08:15:40.235Z,103238.56
2023-04-03T08:18:27.593Z,103247.91
2023-04-03T08:21:14.691Z,103248.25
2023-04-03T08:24:01.303Z,103256.59
2023-04-03T08:26:47.518Z,103254.38
2023-04-03T08:29:34.769Z,103256.03
2023-04-03T08:32:23.248Z,103256.53
2023-04-03T08:35:10.199Z,103258.50
2023-04-03T08:37:56.251Z,103257.69
2023-04-03T08:40:43.524Z,103267.06
2023-04-03T08:43:43.681Z,103272.94
2023-04-03T08:46:45.625Z,103266.47
2023-04-03T08:49:37.765Z,103266.69
2023-04-03T08:52:34.055Z,103272.81
2023-04-03T08:55:25.700Z,103272.75
2023-04-03T08:58:17.413Z,103267.16
2023-04-03T09:01:07.397Z,103267.06
2023-04-03T09:03:53.988Z,103271.00
2023-04-03T09:06:47.144Z,103263.84
2023-04-03T09:09:37.525Z,103264.13
2023-04-03T09:12:27.652Z,103263.09
2023-04-03T09:15:31.332Z,103269.91
2023-04-03T09:18:30.651Z,103263.22
2023-04-03T09:21:24.884Z,103267.44
2023-04-03T09:24:15.714Z,103270.19
2023-04-03T09:27:08.996Z,103272.00
2023-04-03T09:29:58.368Z,103275.81
2023-04-03T09:32:48.175Z,103266.84
2023-04-03T09:35:44.758Z,103260.78
2023-04-03T09:38:35.573Z,103266.44
2023-04-03T09:41:23.605Z,103247.16
2023-04-03T09:44:24.779Z,103243.09
2023-04-03T09:47:25.673Z,103238.06
2023-04-03T09:50:24.227Z,103237.88
2023-04-03T09:53:29.215Z,103240.94
2023-04-03T09:56:26.791Z,103236.34
2023-04-03T09:59:17.936Z,103234.50
2023-04-03T10:02:20.154Z,103235.03
2023-04-03T10:05:26.932Z,103227.31
2023-04-03T10:08:24.876Z,103232.34
2023-04-03T10:11:16.768Z,103232.09
2023-04-03T10:14:07.839Z,103227.44
2023-04-03T10:17:01.756Z,103227.69
2023-04-03T10:19:54.116Z,103212.28
2023-04-03T10:22:56.132Z,103212.16
2023-04-03T10:25:47.561Z,103207.03
2023-04-03T10:28:40.967Z,103202.97
2023-04-03T10:31:37.198Z,103203.47
2023-04-03T10:34:27.982Z,103195.91
2023-04-03T10:37:22.289Z,103208.56
2023-04-03T10:40:21.273Z,103178.25
2023-04-03T10:43:14.069Z,103182.16
2023-04-03T10:46:06.469Z,103172.81
2023-04-03T10:49:08.251Z,103176.63
2023-04-03T10:52:05.905Z,103169.28
2023-04-03T10:55:03.555Z,103168.38
2023-04-03T10:57:51.303Z,103173.13
2023-04-03T11:00:43.549Z,103176.69
2023-04-03T11:03:34.786Z,103171.31
2023-04-03T11:06:25.642Z,103184.78
2023-04-03T11:09:21.778Z,103173.69
2023-04-03T11:12:14.749Z,103165.28
2023-04-03T11:15:03.406Z,103168.63
2023-04-03T11:17:56.895Z,103162.94
2023-04-03T11:20:46.782Z,103159.28
2023-04-03T11:23:48.868Z,103166.84
2023-04-03T11:26:41.886Z,103155.56
2023-04-03T11:29:35.758Z,103157.94
2023-04-03T11:32:54.721Z,103160.34
2023-04-03T11:35:45.349Z,103161.78
2023-04-03T11:38:37.431Z,103155.75
2023-04-03T11:41:29.460Z,103145.78
2023-04-03T11:44:34.320Z,103155.13
2023-04-03T11:47:48.394Z,103157.25
2023-04-03T11:50:47.680Z,103152.19
2023-04-03T11:53:37.091Z,103145.66
2023-04-03T11:56:32.972Z,103144.84
2023-04-03T11:59:25.614Z,103135.66
2023-04-03T12:02:51.103Z,103143.06
2023-04-03T12:05:40.746Z,103138.13
2023-04-03T12:08:28.160Z,103128.22
2023-04-03T12:11:27.849Z,103120.31
2023-04-03T12:14:17.346Z,103110.97
2023-04-03T12:17:04.074Z,103115.59
2023-04-03T12:19:50.513Z,103092.88
2023-04-03T12:22:37.036Z,103099.44
2023-04-03T12:25:51.200Z,103098.59
2023-04-03T12:28:41.778Z,103089.72
2023-04-03T12:31:46.093Z,103113.44
2023-04-03T12:34:48.546Z,103089.84
2023-04-03T12:37:53.090Z,103077.56
2023-04-03T12:40:49.981Z,103078.41
2023-04-03T12:43:50.680Z,103077.88
2023-04-03T12:46:41.671Z,103072.94
2023-04-03T12:49:39.085Z,103081.00
2023-04-03T12:52:35.004Z,103068.72
2023-04-03T12:55:23.182Z,103083.25
2023-04-03T12:58:17.328Z,103065.19
2023-04-03T13:01:12.275Z,103062.88
2023-04-03T13:04:00.666Z,103054.56
2023-04-03T13:06:47.147Z,103052.19
2023-04-03T13:09:33.599Z,103047.78
2023-04-03T13:12:19.794Z,103037.94
2023-04-03T13:15:17.487Z,103046.25
2023-04-03T13:18:05.456Z,103035.81
2023-04-03T13:20:52.757Z,103038.41
2023-04-03T13:23:44.308Z,103035.63
2023-04-03T13:26:33.572Z,103037.91
2023-04-03T13:29:31.060Z,103038.94
2023-04-03T13:32:25.318Z,103034.63
2023-04-03T13:38:27.098Z,103027.53
2023-04-03T13:41:26.851Z,103034.13
2023-04-03T13:44:29.169Z,103029.97
2023-04-03T13:47:21.523Z,103029.94
2023-04-03T13:50:19.176Z,103041.34
2023-04-03T13:53:13.317Z,103041.66
2023-04-03T13:56:08.741Z,103038.00
2023-04-03T13:59:06.952Z,103032.97
2023-04-03T14:01:55.926Z,103027.69
2023-04-03T14:04:54.134Z,103022.78
2023-04-03T14:07:40.352Z,103022.31
2023-04-03T14:10:26.800Z,103021.56
2023-04-03T14:13:17.085Z,103011.75
2023-04-03T14:16:15.102Z,103009.03
2023-04-03T14:19:02.026Z,102993.75
2023-04-03T14:21:49.051Z,102989.06
2023-04-03T14:24:37.725Z,102988.69
2023-04-03T14:27:26.741Z,102997.25
2023-04-03T14:30:21.915Z,102991.88
2023-04-03T14:33:08.881Z,102996.44
2023-04-03T14:35:56.539Z,102990.31
2023-04-03T14:38:46.075Z,102982.28
2023-04-03T14:41:32.656Z,102981.03
2023-04-03T14:44:19.047Z,102976.03
2023-04-03T14:47:11.784Z,102979.13
2023-04-03T14:50:00.944Z,102977.88
2023-04-03T14:52:47.331Z,102982.59
2023-04-03T14:55:33.775Z,102977.03
2023-04-03T14:58:21.977Z,102983.38
2023-04-03T15:01:08.532Z,102981.34
2023-04-03T15:03:56.649Z,102968.25
2023-04-03T15:06:44.112Z,102972.03
2023-04-03T15:09:30.528Z,102965.56
2023-04-03T15:12:16.744Z,102977.31
2023-04-03T15:15:03.779Z,102967.47
2023-04-03T15:17:55.476Z,102964.47
2023-04-03T15:20:44.156Z,102960.47
2023-04-03T15:23:30.931Z,102967.25
2023-04-03T15:26:17.024Z,102973.72
2023-04-03T15:29:03.171Z,102975.94
2023-04-03T15:31:50.690Z,102983.81
2023-04-03T15:34:37.998Z,102976.53
2023-04-03T15:37:26.266Z,102974.88
2023-04-03T15:40:13.678Z,102975.19
2023-04-03T15:43:18.910Z,102974.69
2023-04-03T15:46:13.889Z,102974.53
2023-04-03T15:49:29.093Z,102977.34
2023-04-03T15:52:39.251Z,102972.25
2023-04-03T15:55:38.883Z,102967.84
2023-04-03T15:58:26.962Z,102973.38
2023-04-03T16:01:29.421Z,102975.72
2023-04-03T16:04:30.420Z,102970.13
2023-04-03T16:07:39.549Z,102974.34
2023-04-03T16:10:38.217Z,102964.19
2023-04-03T16:14:03.483Z,102960.44
2023-04-03T16:17:00.512Z,102960.81
2023-04-03T16:20:09.984Z,102960.03
2023-04-03T16:23:40.424Z,102963.34
2023-04-03T16:26:32.370Z,102967.63
2023-04-03T16:29:30.450Z,102970.66
2023-04-03T16:32:39.917Z,102977.56
2023-04-03T16:35:26.931Z,102982.81
2023-04-03T16:38:13.229Z,102978.63
2023-04-03T16:41:05.198Z,102974.75
2023-04-03T16:43:52.028Z,102972.41
2023-04-03T16:46:38.668Z,102978.41
2023-04-03T16:49:25.465Z,102981.81
2023-04-03T16:52:11.975Z,102978.09
2023-04-03T16:54:59.850Z,102979.34
2023-04-03T16:57:48.008Z,102981.25
2023-04-03T17:00:34.899Z,102977.13
2023-04-03T17:03:21.605Z,102979.56
2023-04-03T17:06:08.322Z,102984.97
2023-04-03T17:08:54.946Z,102979.03
2023-04-03T17:11:50.407Z,102972.38
2023-04-03T17:14:38.069Z,102974.94
2023-04-03T17:17:26.836Z,102980.03
2023-04-03T17:20:13.686Z,102977.06
2023-04-03T17:23:00.049Z,102969.72
2023-04-03T17:25:46.806Z,102975.91
2023-04-03T17:28:32.998Z,102973.44
2023-04-03T17:31:20.732Z,102970.38
2023-04-03T17:34:06.991Z,102972.16
2023-04-03T17:36:53.561Z,102976.97
2023-04-03T17:39:40.107Z,102971.31
2023-04-03T17:42:26.534Z,102973.78
2023-04-03T17:45:13.295Z,102973.53
2023-04-03T17:48:01.223Z,102968.69
2023-04-03T17:50:47.625Z,102972.66
2023-04-03T17:53:37.893Z,102980.53
2023-04-03T17:56:27.038Z,102984.50
2023-04-03T17:59:15.116Z,102991.44
2023-04-03T18:02:02.837Z,102994.38
2023-04-03T18:04:52.339Z,102992.25
2023-04-03T18:07:41.121Z,102992.66
2023-04-03T18:10:27.956Z,102994.81
2023-04-03T18:13:16.000Z,102999.75
2023-04-03T18:16:02.912Z,102999.34
2023-04-03T18:19:02.592Z,102997.03
2023-04-03T18:22:03.023Z,103009.56
2023-04-03T18:24:50.363Z,103005.13
2023-04-03T18:27:36.853Z,103002.28
2023-04-03T18:30:26.462Z,103002.06
2023-04-03T18:33:13.021Z,102999.44
2023-04-03T18:36:03.010Z,103001.28
2023-04-03T18:38:50.952Z,102994.31
2023-04-03T18:41:38.412Z,102995.91
2023-04-03T18:44:26.094Z,103002.63
2023-04-03T18:47:13.287Z,103006.09
2023-04-03T18:50:00.429Z,103009.63
2023-04-03T18:52:50.566Z,103004.94
2023-04-03T18:55:38.440Z,103006.72
2023-04-03T18:58:24.954Z,103012.13
2023-04-03T19:01:12.032Z,103011.72
2023-04-03T19:03:58.722Z,103017.25
2023-04-03T19:06:45.684Z,103011.56
2023-04-03T19:09:32.850Z,103017.25
2023-04-03T19:12:20.833Z,103015.19
2023-04-03T19:15:08.092Z,103013.84
2023-04-03T19:17:54.429Z,103016.31
2023-04-03T19:20:41.450Z,103015.59
2023-04-03T19:23:27.955Z,103020.50
2023-04-03T19:26:14.745Z,103013.75
2023-04-03T19:29:02.639Z,103018.50
2023-04-03T19:31:48.877Z,103016.88
2023-04-03T19:34:35.122Z,103016.13
2023-04-03T19:37:21.425Z,103023.41
2023-04-03T19:40:09.590Z,103024.75
2023-04-03T19:42:56.079Z,103019.34
2023-04-03T19:45:45.950Z,103023.63
2023-04-03T19:48:32.577Z,103018.25
2023-04-03T19:51:19.350Z,103015.66
2023-04-03T19:54:06.061Z,103018.88
2023-04-03T19:56:52.655Z,103010.94
2023-04-03T19:59:39.215Z,103015.88
2023-04-03T20:02:27.396Z,103014.06
2023-04-03T20:05:14.038Z,103009.94
2023-04-03T20:08:00.185Z,103015.91
2023-04-03T20:10:46.933Z,103012.34
2023-04-03T20:13:33.748Z,103020.97
2023-04-03T20:16:22.381Z,103015.50
2023-04-03T20:19:10.792Z,103014.75
2023-04-03T20:21:58.430Z,103017.63
2023-04-03T20:24:44.856Z,103021.63
2023-04-03T20:27:32.230Z,103025.69
2023-04-03T20:30:18.422Z,103027.31
2023-04-03T20:33:05.621Z,103026.63
2023-04-03T20:35:54.669Z,103033.78
2023-04-03T20:38:41.290Z,103031.38
2023-04-03T20:41:27.815Z,103030.09
2023-04-03T20:44:15.313Z,103031.81
2023-04-03T20:47:01.751Z,103024.38
2023-04-03T20:49:48.878Z,103029.94
2023-04-03T20:52:36.614Z,103021.34
2023-04-03T20:55:23.467Z,103019.69
2023-04-03T20:58:11.276Z,103023.38
2023-04-03T21:00:57.870Z,103016.19
2023-04-03T21:03:46.096Z,103019.47
2023-04-03T21:07:10.388Z,103014.88
2023-04-03T21:10:33.991Z,103017.81
2023-04-03T21:13:57.714Z,103016.03
2023-04-03T21:16:44.580Z,103017.03
2023-04-03T21:19:33.114Z,103016.34
2023-04-03T21:22:21.701Z,103019.19
2023-04-03T21:25:08.821Z,103021.47
2023-04-03T21:27:55.069Z,103023.38
2023-04-03T21:30:41.752Z,103029.09
2023-04-03T21:33:28.309Z,103025.22
2023-04-03T21:36:16.266Z,103028.22
2023-04-03T21:39:02.978Z,103021.88
2023-04-03T21:41:50.471Z,103015.00
2023-04-03T21:44:36.836Z,103009.72
2023-04-03T21:47:23.900Z,103011.34
2023-04-03T21:50:10.727Z,103016.25
2023-04-03T21:52:58.461Z,103015.50
2023-04-03T21:55:53.706Z,103020.59
2023-04-03T21:58:40.181Z,103021.53
2023-04-03T22:01:27.444Z,103013.81
2023-04-03T22:04:13.767Z,103002.50
2023-04-03T22:06:59.790Z,103010.59
2023-04-03T22:09:47.603Z,103004.56
2023-04-03T22:12:34.177Z,103002.66
2023-04-03T22:15:22.252Z,103001.13
2023-04-03T22:18:08.501Z,103005.31
2023-04-03T22:20:55.694Z,103001.78
2023-04-03T22:23:42.147Z,102995.63
2023-04-03T22:26:29.970Z,102990.34
2023-04-03T22:29:16.707Z,102990.44
2023-04-03T22:32:03.008Z,102986.47
2023-04-03T22:34:49.259Z,102990.31
2023-04-03T22:37:35.993Z,102988.03
2023-04-03T22:40:22.129Z,102988.69
2023-04-03T22:43:09.929Z,102991.59
2023-04-03T22:45:57.530Z,102981.34
2023-04-03T22:48:45.177Z,102977.66
2023-04-03T22:51:31.288Z,102974.97
2023-04-03T22:54:17.698Z,102966.03
2023-04-03T22:57:04.371Z,102968.41
2023-04-03T22:59:51.948Z,102978.94
2023-04-03T23:02:38.415Z,102976.75
2023-04-03T23:05:24.739Z,102978.66
2023-04-03T23:08:11.524Z,102965.91
2023-04-03T23:10:58.214Z,102970.03
2023-04-03T23:13:44.534Z,102976.25
2023-04-03T23:16:32.680Z,102976.91
2023-04-03T23:19:19.372Z,102975.31
2023-04-03T23:22:05.939Z,102968.13
2023-04-03T23:24:52.025Z,102982.09
2023-04-03T23:27:38.411Z,102974.28
2023-04-03T23:30:24.864Z,102980.84
2023-04-03T23:33:12.614Z,102989.34
2023-04-03T23:35:59.346Z,102985.28
2023-04-03T23:38:46.014Z,102990.41
2023-04-03T23:41:32.318Z,102999.81
2023-04-03T23:44:18.702Z,102996.38
2023-04-03T23:47:05.355Z,102994.00
2023-04-03T23:49:52.893Z,102986.53
2023-04-03T23:52:39.328Z,102989.13
2023-04-03T23:55:25.723Z,102998.19
2023-04-03T23:58:12.265Z,103000.03
